• Join FlightAware (Why Join?)
  • Login
  • US Flag 
02:06PM EDT


 

Airport Tracker/Info


-or-


 

Live Flight TrackerFlight Track Log ✈ N865JM ✈ 24-Jan-2014 ✈ KPBI - KIAD

Flight Track Log - Related Links

Times and Time Zones

All times are in EST time to prevent confusion due to time zone crossing. See the N865JM flight status page for this flight to view local times or setup timezone preferences in your user account.

Time Position Orientation Groundspeed Altitude Reporting Facility
EST Latitude Longitude Course Direction KTS MPH feet Rate Location/Type
10:02AM 26.7525 -80.1858 37° Northeast 211 243 2,000  Level Miami Center
10:03AM 26.8036 -80.1431 37° Northeast 172 198 4,100 3,000 Climbing Miami Center
10:04AM 26.8267 -80.0528 74° East 201 231 8,000 3,420 Climbing Miami Center
10:05AM 26.8536 -79.9606 72° East 259 298 11,000 2,880 Climbing Miami Center
10:06AM 26.8808 -79.8656 72° East 331 381 13,800 1,500 Climbing Miami Center
10:07AM 26.9125 -79.7478 73° East 380 437 14,000 60 Climbing Miami Center
10:08AM 26.9772 -79.6281 59° Northeast 408 470 14,000 300 Level Miami Center
10:09AM 27.0442 -79.5247 54° Northeast 408 470 14,600 1,440 Climbing Miami Center
10:10AM 27.1106 -79.4214 54° Northeast 408 470 16,900 2,100 Climbing Miami Center
10:11AM 27.1750 -79.3247 53° Northeast 408 470 18,900 2,160 Climbing Miami Center
10:12AM 27.2414 -79.2186 55° Northeast 408 470 21,300 2,340 Climbing Miami Center
10:13AM 27.3164 -79.1008 54° Northeast 420 483 23,600 2,100 Climbing Miami Center
10:14AM 27.3931 -78.9994 50° Northeast 419 482 25,500 1,800 Climbing Miami Center
10:15AM 27.4942 -78.9381 28° Northeast 414 476 27,300 1,560 Climbing Miami Center
10:16AM 27.5925 -78.9233 North 388 447 28,700 1,200 Climbing Miami Center
10:17AM 27.7181 -78.9069 North 402 463 29,800 1,020 Climbing Miami Center
10:18AM 27.8394 -78.8881 North 426 490 30,800 960 Climbing Miami Center
10:19AM 27.9631 -78.8714 North 433 498 31,800 960 Climbing Miami Center
10:20AM 28.0883 -78.8572 North 439 505 32,800 960 Climbing Miami Center
10:21AM 28.2161 -78.8381 North 446 513 33,800 960 Climbing Miami Center
10:22AM 28.3414 -78.8214 North 451 519 34,800 840 Climbing Miami Center
10:23AM 28.4628 -78.8047 North 451 519 35,500 600 Climbing Miami Center
10:24AM 28.5944 -78.7856 North 451 519 36,000 480 Climbing Miami Center
10:25AM 28.7178 -78.7689 North 451 519 36,500 480 Climbing Miami Center
10:26AM 28.8475 -78.7497 North 451 519 37,000 240 Climbing Miami Center
10:27AM 28.9750 -78.7306 North 451 519 37,000  Level Miami Center
10:28AM 29.1025 -78.7139 North 456 525 37,000  Level Miami Center
10:29AM 29.2300 -78.6944 North 461 531 37,000  Level Miami Center
10:30AM 29.3700 -78.6850 North 468 539 37,000  Level Miami Center
10:31AM 29.4911 -78.6608 10° North 460 529 37,000  Level Miami Center
10:32AM 29.6106 -78.6342 11° North 458 527 37,000  Level Miami Center
10:33AM 29.7439 -78.6158 North 465 535 37,000  Level Jacksonville Center
10:34AM 29.8706 -78.5958 North 475 547 37,000  Level Jacksonville Center
10:35AM 30.0058 -78.5828 North 470 541 37,000  Level Jacksonville Center
10:36AM 30.1325 -78.5628 North 470 541 37,000  Level Jacksonville Center
10:37AM 30.2675 -78.5444 North 455 524 37,000  Level Jacksonville Center
10:38AM 30.4044 -78.5239 North 462 532 37,000  Level Jacksonville Center
10:39AM 30.5292 -78.5061 North 468 539 37,000  Level Jacksonville Center
10:40AM 30.6619 -78.4831 North 468 539 37,000  Level Jacksonville Center
10:41AM 30.7928 -78.4625 North 468 539 37,000  Level Jacksonville Center
10:42AM 30.9256 -78.4417 North 463 533 37,000  Level Jacksonville Center
10:43AM 31.0583 -78.4161 North 478 550 37,000  Level Jacksonville Center
10:44AM 31.1892 -78.3953 North 473 544 37,000  Level Jacksonville Center
10:45AM 31.3178 -78.3769 North 470 541 37,000  Level Jacksonville Center
10:46AM 31.4486 -78.3536 North 470 541 37,000  Level Jacksonville Center
10:47AM 31.5814 -78.3325 North 470 541 37,000  Level Jacksonville Center
10:48AM 31.7100 -78.3114 North 477 549 37,000  Level Jacksonville Center
10:49AM 31.8428 -78.2903 North 477 549 37,000  Level Jacksonville Center
10:50AM 31.9756 -78.2689 North 477 549 37,000  Level Jacksonville Center
10:51AM 32.1064 -78.2475 North 477 549 37,000  Level Jacksonville Center
10:52AM 32.2286 -78.2242 North 482 555 37,000  Level Jacksonville Center
10:53AM 32.3636 -78.2025 North 482 555 37,000  Level Jacksonville Center
10:54AM 32.4964 -78.1808 North 482 555 37,000 -60 Level Jacksonville Center
10:55AM 32.6311 -78.1592 North 482 555 36,900  Descending Jacksonville Center
10:56AM 32.7661 -78.1397 North 482 555 37,000  Climbing Jacksonville Center
10:57AM 32.9008 -78.1153 North 482 555 37,000  Level Jacksonville Center
10:58AM 33.0378 -78.0931 North 482 555 37,000  Level Jacksonville Center
10:59AM 33.1725 -78.0711 North 482 555 37,000  Level Jacksonville Center
11:00AM 33.3072 -78.0489 North 482 555 37,000  Level Jacksonville Center
11:01AM 33.3875 -78.0364 North 485 558 37,000  Level Washington Center
11:02AM 33.5236 -78.0153 North 485 558 37,000  Level Washington Center
11:03AM 33.6553 -77.9942 North 485 558 37,000  Level Washington Center
11:04AM 33.7872 -77.9706 North 485 558 37,000  Level Washington Center
11:05AM 33.9067 -77.9464 10° North 479 551 37,000  Level Washington Center
11:06AM 34.0342 -77.9300 North 479 551 37,000  Level Washington Center
11:07AM 34.1619 -77.9086 North 468 539 37,000  Level Washington Center
11:08AM 34.2897 -77.8869 North 463 533 37,000  Level Washington Center
11:09AM 34.4128 -77.8778 North 463 533 37,000  Level Washington Center
11:10AM 34.5339 -77.8736 North 445 512 37,000  Level Washington Center
11:11AM 34.6569 -77.8744 360° North 439 505 37,000  Level Washington Center
11:12AM 34.7761 -77.8703 North 432 497 37,000  Level Washington Center
11:13AM 34.8950 -77.8661 North 427 491 37,000  Level Washington Center
11:14AM 35.0161 -77.8644 North 427 491 37,000  Level Washington Center
11:15AM 35.1372 -77.8625 North 427 491 37,000  Level Washington Center
11:16AM 35.2583 -77.8611 North 427 491 37,000  Level Washington Center
11:17AM 35.3792 -77.8592 North 427 491 37,000  Level Washington Center
11:18AM 35.5003 -77.8603 360° North 427 491 37,000  Level Washington Center
11:19AM 35.6214 -77.8586 North 427 491 37,000 -240 Level Washington Center
11:20AM 35.7425 -77.8569 North 427 491 36,600 -900 Descending Washington Center
11:21AM 35.8633 -77.8553 North 427 491 35,200 -1,560 Descending Washington Center
11:22AM 35.9761 -77.8533 North 420 483 33,500 -1,740 Descending Washington Center
11:23AM 36.0867 -77.8514 North 408 470 31,800 -1,620 Descending Washington Center
11:24AM 36.1931 -77.8517 360° North 395 455 30,400 -1,440 Descending Washington Center
11:25AM 36.3081 -77.8500 North 389 448 29,000 -1,440 Descending Washington Center
11:26AM 36.4206 -77.8481 North 394 453 27,600 -1,020 Descending Washington Center
11:27AM 36.5333 -77.8461 North 401 461 27,000 -300 Descending Washington Center
11:28AM 36.6503 -77.8442 North 408 470 27,000 -360 Level Washington Center
11:29AM 36.7653 -77.8319 North 408 470 26,300 -900 Descending Washington Center
11:30AM 36.8783 -77.8042 11° North 408 470 25,300 -1,020 Descending Washington Center
11:31AM 36.9875 -77.7761 12° North 408 470 24,300 -1,020 Descending Washington Center
11:32AM 37.0942 -77.7478 12° North 396 456 23,300 -1,020 Descending Washington Center
11:33AM 37.1950 -77.7194 13° North 380 437 22,300 -660 Descending Washington Center
11:34AM 37.2956 -77.6908 13° North 374 430 22,000 -300 Descending Washington Center
11:35AM 37.3983 -77.6622 12° North 374 430 21,800 -360 Descending Washington Center
11:36AM 37.5031 -77.6336 12° North 374 430 21,300 -540 Descending Washington Center
11:37AM 37.6017 -77.6075 12° North 369 425 20,800 -600 Descending Washington Center
11:38AM 37.7000 -77.5814 12° North 364 419 20,100 -1,380 Descending Washington Center
11:39AM 37.7964 -77.5522 13° North 358 412 18,100 3,480 Descending Washington Center
11:40AM 37.8908 -77.5258 12° North 353 406 27,000 -1,740 Climbing Washington Center
11:41AM 37.9808 -77.5017 12° North 347 399 14,700 -7,140 Descending Washington Center
11:42AM 38.0731 -77.4778 12° North 336 387 12,600 -2,040 Descending Washington Center
11:43AM 38.1589 -77.4536 12° North 329 379 10,600 -1,560 Descending Washington Center
11:44AM 38.2281 -77.4181 22° Northeast 293 337 9,600 -1,080 Descending Washington Center
11:45AM 38.2992 -77.4119 North 260 299 8,500 -1,080 Descending Washington Center
11:46AM 38.3700 -77.4164 357° North 255 293 7,500 -1,020 Descending Washington Center
11:47AM 38.4367 -77.4233 355° North 250 288 6,500 -1,020 Descending Washington Center
11:48AM 38.4992 -77.4275 357° North 239 275 5,500 -1,020 Descending Washington Center
11:49AM 38.5617 -77.4317 357° North 229 264 4,500 -720 Descending Washington Center
11:50AM 38.6200 -77.4358 357° North 218 251 4,100 -360 Descending Washington Center
11:50AM 38.6667 -77.4333 North 208 239 4,000 -180 Descending Potomac TRACON
11:51AM 38.7167 -77.4333 360° North 206 237 3,900 -60 Descending Potomac TRACON
11:52AM 38.7667 -77.4333 360° North 175 201 3,900 -660 Level Potomac TRACON
11:53AM 38.8167 -77.4333 360° North 175 201 2,600 -1,140 Descending Potomac TRACON
11:54AM 38.8667 -77.4333 360° North 162 186 1,700 -900 Descending Potomac TRACON
11:55AM 38.9000 -77.4333 360° North 125 144 900 -840 Descending Potomac TRACON
11:57AM 38.9474 -77.4599 North  Level Estimated
12:04PM 38.9474 -77.4599 191° South  Level Estimated
12:05PM 38.9474 -77.4599 191° South  Level Estimated